createdAt,value
2022-07-28T00:00:48.694Z,12.2
2022-07-28T00:01:49.297Z,12.2
2022-07-28T00:02:49.901Z,12.2
2022-07-28T00:03:50.467Z,12.2
2022-07-28T00:04:51.060Z,12.2
2022-07-28T00:05:51.653Z,12.2
2022-07-28T00:06:52.248Z,12.3
2022-07-28T00:07:52.843Z,12.3
2022-07-28T00:08:53.438Z,12.3
2022-07-28T00:09:59.846Z,12.2
2022-07-28T00:10:55.620Z,12.3
2022-07-28T00:11:56.215Z,12.3
2022-07-28T00:12:56.810Z,12.2
2022-07-28T00:13:57.403Z,12.2
2022-07-28T00:14:58.000Z,12.2
2022-07-28T00:15:58.623Z,12.2
2022-07-28T00:16:59.227Z,12.2
2022-07-28T00:17:59.820Z,12.3
2022-07-28T00:19:00.414Z,12.4
2022-07-28T00:20:01.010Z,12.4
2022-07-28T00:21:01.608Z,12.2
2022-07-28T00:22:02.201Z,12.3
2022-07-28T00:23:02.797Z,12.2
2022-07-28T00:24:03.390Z,12.2
2022-07-28T00:25:03.985Z,12.2
2022-07-28T00:26:04.580Z,12.3
2022-07-28T00:27:05.178Z,12.2
2022-07-28T00:28:05.796Z,12.1
2022-07-28T00:29:06.385Z,12.2
2022-07-28T00:30:06.985Z,12.2
2022-07-28T00:31:11.183Z,12.3
2022-07-28T00:32:09.252Z,12.2
2022-07-28T00:33:10.155Z,12.2
2022-07-28T00:34:11.044Z,12.3
2022-07-28T00:35:11.756Z,12.3
2022-07-28T00:36:12.717Z,12.2
2022-07-28T00:37:14.976Z,12.2
2022-07-28T00:38:14.108Z,12.2
2022-07-28T00:39:14.703Z,12.0
2022-07-28T00:40:15.299Z,12.0
2022-07-28T00:41:15.891Z,12.0
2022-07-28T00:42:16.487Z,12.0
2022-07-28T00:43:17.102Z,11.9
2022-07-28T00:44:17.697Z,11.8
2022-07-28T00:45:18.291Z,11.7
2022-07-28T00:46:19.008Z,11.7
2022-07-28T00:47:19.494Z,11.5
2022-07-28T00:48:20.089Z,11.4
2022-07-28T00:49:20.729Z,11.4
2022-07-28T00:50:21.282Z,11.3
2022-07-28T00:51:21.868Z,11.3
2022-07-28T00:52:22.462Z,11.2
2022-07-28T00:53:23.058Z,11.3
2022-07-28T00:54:23.712Z,11.2
2022-07-28T00:55:24.778Z,11.2
2022-07-28T00:56:25.405Z,11.2
2022-07-28T00:57:25.988Z,11.1
2022-07-28T00:58:26.581Z,11.2
2022-07-28T00:59:27.178Z,11.1
2022-07-28T01:00:27.769Z,11.1
2022-07-28T01:01:28.427Z,11.0
2022-07-28T01:02:29.155Z,11.0
2022-07-28T01:03:29.768Z,10.9
2022-07-28T01:04:30.362Z,10.9
2022-07-28T01:05:43.863Z,10.9
2022-07-28T01:06:32.565Z,10.9
2022-07-28T01:07:33.163Z,10.8
2022-07-28T01:08:33.768Z,10.8
2022-07-28T01:09:34.354Z,10.8
2022-07-28T01:10:34.967Z,10.8
2022-07-28T01:11:42.954Z,10.7
2022-07-28T01:12:37.151Z,10.7
2022-07-28T01:13:37.748Z,10.7
2022-07-28T01:14:38.339Z,10.7
2022-07-28T01:15:38.994Z,10.8
2022-07-28T01:16:39.586Z,10.8
2022-07-28T01:17:40.184Z,10.9
2022-07-28T01:18:40.776Z,10.9
2022-07-28T01:19:41.372Z,10.8
2022-07-28T01:20:41.965Z,10.8
2022-07-28T01:21:42.561Z,10.9
2022-07-28T01:22:43.158Z,10.9
2022-07-28T01:23:43.751Z,10.8
2022-07-28T01:24:44.456Z,10.8
2022-07-28T01:25:48.606Z,10.8
2022-07-28T01:26:46.636Z,10.7
2022-07-28T01:27:47.232Z,10.8
2022-07-28T01:28:47.829Z,10.7
2022-07-28T01:29:48.423Z,10.8
2022-07-28T01:30:49.040Z,10.7
2022-07-28T01:31:49.617Z,10.8
2022-07-28T01:32:50.207Z,10.7
2022-07-28T01:33:50.806Z,10.8
2022-07-28T01:34:51.399Z,10.8
2022-07-28T01:35:51.995Z,10.9
2022-07-28T01:36:52.593Z,11.0
2022-07-28T01:37:53.206Z,10.9
2022-07-28T01:38:53.798Z,10.9
2022-07-28T01:39:54.395Z,11.2
2022-07-28T01:40:54.993Z,11.2
2022-07-28T01:41:55.605Z,11.2
2022-07-28T01:42:56.198Z,11.2
2022-07-28T01:43:56.793Z,11.3
2022-07-28T01:44:57.387Z,11.3
2022-07-28T01:45:58.096Z,11.4
2022-07-28T01:46:58.661Z,11.5
2022-07-28T01:47:59.258Z,11.7
2022-07-28T01:48:59.912Z,11.6
2022-07-28T01:50:00.470Z,11.6
2022-07-28T01:51:01.065Z,11.5
2022-07-28T01:52:01.663Z,11.2
2022-07-28T01:53:02.254Z,11.1
2022-07-28T01:54:02.851Z,10.9
2022-07-28T01:55:03.446Z,10.8
2022-07-28T01:56:04.046Z,10.7
2022-07-28T01:57:04.637Z,10.7
2022-07-28T01:58:05.232Z,10.7
2022-07-28T01:59:05.840Z,10.6
2022-07-28T02:00:06.423Z,10.6
2022-07-28T02:01:07.093Z,10.5
2022-07-28T02:02:07.763Z,10.4
2022-07-28T02:03:08.372Z,10.3
2022-07-28T02:04:08.969Z,10.1
2022-07-28T02:05:09.622Z,9.9
2022-07-28T02:06:10.202Z,9.7
2022-07-28T02:07:10.794Z,9.8
2022-07-28T02:08:11.390Z,9.7
2022-07-28T02:09:11.985Z,9.6
2022-07-28T02:10:12.580Z,9.6
2022-07-28T02:11:13.174Z,9.5
2022-07-28T02:12:13.772Z,9.7
2022-07-28T02:13:14.363Z,9.5
2022-07-28T02:14:15.419Z,9.6
2022-07-28T02:15:16.162Z,9.7
2022-07-28T02:16:16.809Z,9.8
2022-07-28T02:17:17.391Z,9.8
2022-07-28T02:18:17.989Z,9.9
2022-07-28T02:19:18.584Z,9.9
2022-07-28T02:20:19.174Z,9.8
2022-07-28T02:21:19.765Z,9.8
2022-07-28T02:22:20.361Z,9.6
2022-07-28T02:23:20.953Z,9.7
2022-07-28T02:24:21.547Z,9.7
2022-07-28T02:25:22.151Z,9.7
2022-07-28T02:26:22.737Z,9.7
2022-07-28T02:27:23.331Z,9.7
2022-07-28T02:28:23.925Z,9.7
2022-07-28T02:29:49.696Z,9.6
2022-07-28T02:30:27.097Z,9.6
2022-07-28T02:31:27.761Z,9.6
2022-07-28T02:32:28.723Z,9.6
2022-07-28T02:33:59.971Z,9.6
2022-07-28T02:34:30.944Z,9.6
2022-07-28T02:35:32.118Z,9.6
2022-07-28T02:36:33.202Z,9.7
2022-07-28T02:37:33.795Z,9.9
2022-07-28T02:38:34.389Z,9.9
2022-07-28T02:39:34.986Z,10.0
2022-07-28T02:40:35.577Z,10.0
2022-07-28T02:41:36.182Z,10.1
2022-07-28T02:42:36.848Z,10.0
2022-07-28T02:43:49.319Z,10.0
2022-07-28T02:44:39.022Z,9.9
2022-07-28T02:45:39.617Z,9.9
2022-07-28T02:46:40.254Z,9.9
2022-07-28T02:47:40.820Z,9.9
2022-07-28T02:48:41.467Z,9.9
2022-07-28T02:49:42.023Z,9.9
2022-07-28T02:50:42.626Z,9.7
2022-07-28T02:51:43.236Z,9.7
2022-07-28T02:52:43.847Z,9.7
2022-07-28T02:53:44.442Z,9.7
2022-07-28T02:54:45.035Z,9.7
2022-07-28T02:55:45.632Z,9.8
2022-07-28T02:56:53.893Z,9.8
2022-07-28T02:57:47.834Z,9.9
2022-07-28T02:58:48.423Z,9.8
2022-07-28T02:59:49.021Z,9.9
2022-07-28T03:00:49.636Z,10.0
2022-07-28T03:01:50.297Z,9.9
2022-07-28T03:02:50.838Z,9.9
2022-07-28T03:03:51.434Z,9.9
2022-07-28T03:04:53.083Z,9.8
2022-07-28T03:05:53.650Z,9.7
2022-07-28T03:06:54.265Z,9.7
2022-07-28T03:07:54.879Z,9.7
2022-07-28T03:08:55.475Z,9.5
2022-07-28T03:09:56.070Z,9.5
2022-07-28T03:10:56.665Z,9.5
2022-07-28T03:11:57.259Z,9.5
2022-07-28T03:12:57.855Z,9.5
2022-07-28T03:13:58.451Z,9.6
2022-07-28T03:15:00.039Z,9.7
2022-07-28T03:16:00.635Z,9.6
2022-07-28T03:17:01.264Z,9.6
2022-07-28T03:18:01.829Z,9.7
2022-07-28T03:19:02.442Z,9.7
2022-07-28T03:20:03.063Z,9.9
2022-07-28T03:21:03.653Z,9.8
2022-07-28T03:22:04.250Z,9.9
2022-07-28T03:23:04.842Z,9.9
2022-07-28T03:24:05.440Z,10.0
2022-07-28T03:25:06.036Z,9.9
2022-07-28T03:26:06.905Z,9.9
2022-07-28T03:27:07.498Z,9.9
2022-07-28T03:28:08.117Z,10.0
2022-07-28T03:29:08.752Z,10.0
2022-07-28T03:30:09.353Z,10.0
2022-07-28T03:31:10.032Z,10.0
2022-07-28T03:32:10.631Z,10.0
2022-07-28T03:33:11.230Z,10.0
2022-07-28T03:34:12.292Z,10.0
2022-07-28T03:35:12.961Z,10.1
2022-07-28T03:36:13.558Z,10.1
2022-07-28T03:37:14.155Z,10.1
2022-07-28T03:38:14.756Z,10.1
2022-07-28T03:39:16.348Z,10.1
2022-07-28T03:40:16.946Z,10.0
2022-07-28T03:41:17.541Z,10.0
2022-07-28T03:42:18.140Z,10.1
2022-07-28T03:43:18.742Z,10.1
2022-07-28T03:44:27.667Z,10.2
2022-07-28T03:45:20.927Z,10.2
2022-07-28T03:46:21.599Z,10.3
2022-07-28T03:47:22.203Z,10.3
2022-07-28T03:48:22.802Z,10.4
2022-07-28T03:49:23.559Z,10.3
2022-07-28T03:50:24.167Z,10.3
2022-07-28T03:51:24.760Z,10.3
2022-07-28T03:52:26.025Z,10.3
2022-07-28T03:53:26.633Z,10.2
2022-07-28T03:54:27.232Z,10.3
2022-07-28T03:55:27.832Z,10.3
2022-07-28T03:56:28.434Z,10.3
2022-07-28T03:57:29.034Z,10.3
2022-07-28T03:58:29.639Z,10.3
2022-07-28T03:59:30.235Z,10.2
2022-07-28T04:00:30.830Z,10.1
2022-07-28T04:01:31.472Z,9.9
2022-07-28T04:02:32.074Z,10.0
2022-07-28T04:03:42.637Z,9.9
2022-07-28T04:04:34.251Z,9.9
2022-07-28T04:05:34.847Z,9.9
2022-07-28T04:06:35.446Z,9.7
2022-07-28T04:07:36.044Z,9.7
2022-07-28T04:08:36.651Z,9.7
2022-07-28T04:09:37.243Z,9.8
2022-07-28T04:10:37.850Z,9.8
2022-07-28T04:11:38.445Z,9.9
2022-07-28T04:12:39.057Z,9.9
2022-07-28T04:13:39.655Z,9.9
2022-07-28T04:14:40.252Z,9.9
2022-07-28T04:15:40.851Z,9.9
2022-07-28T04:16:41.534Z,9.9
2022-07-28T04:17:42.079Z,9.9
2022-07-28T04:18:42.680Z,10.0
2022-07-28T04:19:43.277Z,9.9
2022-07-28T04:20:43.876Z,9.9
2022-07-28T04:21:44.480Z,9.9
2022-07-28T04:22:45.075Z,9.9
2022-07-28T04:23:45.673Z,10.0
2022-07-28T04:24:46.274Z,10.0
2022-07-28T04:25:46.875Z,10.1
2022-07-28T04:26:47.475Z,10.1
2022-07-28T04:27:48.074Z,10.2
2022-07-28T04:28:48.675Z,10.3
2022-07-28T04:29:49.273Z,10.2
2022-07-28T04:30:49.975Z,10.4
2022-07-28T04:31:50.509Z,10.4
2022-07-28T04:32:51.112Z,10.5
2022-07-28T04:33:51.733Z,10.6
2022-07-28T04:34:52.330Z,10.6
2022-07-28T04:35:52.975Z,10.7
2022-07-28T04:36:53.532Z,10.9
2022-07-28T04:37:54.134Z,10.9
2022-07-28T04:38:54.733Z,10.9
2022-07-28T04:39:55.335Z,10.9
2022-07-28T04:40:55.949Z,10.9
2022-07-28T04:41:56.550Z,10.8
2022-07-28T04:42:57.151Z,10.9
2022-07-28T04:43:57.753Z,11.0
2022-07-28T04:44:58.351Z,11.0
2022-07-28T04:45:58.979Z,11.1
2022-07-28T04:46:59.556Z,11.1
2022-07-28T04:48:00.175Z,11.1
2022-07-28T04:49:00.868Z,10.9
2022-07-28T04:50:01.447Z,10.9
2022-07-28T04:51:02.034Z,10.9
2022-07-28T04:52:02.632Z,10.9
2022-07-28T04:53:03.239Z,10.9
2022-07-28T04:54:03.832Z,10.9
2022-07-28T04:55:04.434Z,10.9
2022-07-28T04:56:05.038Z,10.9
2022-07-28T04:57:06.283Z,10.9
2022-07-28T04:58:07.235Z,10.9
2022-07-28T04:59:08.824Z,10.8
2022-07-28T05:00:10.416Z,10.7
2022-07-28T05:01:11.415Z,10.7
2022-07-28T05:02:11.976Z,10.7
2022-07-28T05:03:12.576Z,10.8
2022-07-28T05:04:13.436Z,10.8
2022-07-28T05:05:14.265Z,10.8
2022-07-28T05:06:14.844Z,10.8
2022-07-28T05:07:15.447Z,10.8
2022-07-28T05:08:16.047Z,10.8
2022-07-28T05:09:16.645Z,10.8
2022-07-28T05:10:17.247Z,10.9
2022-07-28T05:11:17.846Z,11.0
2022-07-28T05:12:18.447Z,11.1
2022-07-28T05:13:19.046Z,11.2
2022-07-28T05:14:19.648Z,11.3
2022-07-28T05:15:20.250Z,11.4
2022-07-28T05:16:20.872Z,11.5
2022-07-28T05:17:21.469Z,11.7
2022-07-28T05:18:22.057Z,11.7
2022-07-28T05:19:22.679Z,11.8
2022-07-28T05:20:23.280Z,11.8
2022-07-28T05:21:23.880Z,11.8
2022-07-28T05:22:24.482Z,11.8
2022-07-28T05:23:25.090Z,11.8
2022-07-28T05:24:25.686Z,11.8
2022-07-28T05:25:26.286Z,11.8
2022-07-28T05:26:26.889Z,11.9
2022-07-28T05:27:27.485Z,12.0
2022-07-28T05:28:28.088Z,12.0
2022-07-28T05:29:42.464Z,12.1
2022-07-28T05:30:30.278Z,12.3
2022-07-28T05:31:30.935Z,12.3
2022-07-28T05:32:31.481Z,12.6
2022-07-28T05:33:32.236Z,13.6
2022-07-28T05:34:32.769Z,14.9
2022-07-28T05:35:33.392Z,15.9
2022-07-28T05:36:33.991Z,16.6
2022-07-28T05:37:34.592Z,17.6
2022-07-28T05:38:35.219Z,18.3
2022-07-28T05:39:35.811Z,18.2
2022-07-28T05:40:36.412Z,18.2
2022-07-28T05:41:37.012Z,18.2
2022-07-28T05:42:37.611Z,18.1
2022-07-28T05:43:38.234Z,18.7
2022-07-28T05:44:38.855Z,19.0
2022-07-28T05:45:39.488Z,19.0
2022-07-28T05:46:40.054Z,19.5
2022-07-28T05:47:40.655Z,20.0
2022-07-28T05:48:41.299Z,20.0
2022-07-28T05:49:41.887Z,18.9
2022-07-28T05:50:42.477Z,18.8
2022-07-28T05:51:43.078Z,18.5
2022-07-28T05:52:43.680Z,18.7
2022-07-28T05:53:44.277Z,19.3
2022-07-28T05:54:44.876Z,19.0
2022-07-28T05:56:00.937Z,19.4
2022-07-28T05:56:50.122Z,19.7
2022-07-28T05:57:48.664Z,19.5
2022-07-28T05:58:49.262Z,19.8
2022-07-28T05:59:49.884Z,19.6
2022-07-28T06:00:50.504Z,19.9
2022-07-28T06:01:51.110Z,20.2
2022-07-28T06:02:51.681Z,20.3
2022-07-28T06:04:09.986Z,21.2
2022-07-28T06:04:53.873Z,22.2
2022-07-28T06:05:59.474Z,22.7
2022-07-28T06:06:56.084Z,22.5
2022-07-28T06:07:56.670Z,21.8
2022-07-28T06:08:57.292Z,21.5
2022-07-28T06:09:57.911Z,22.1
2022-07-28T06:10:58.511Z,22.3
2022-07-28T06:11:59.112Z,21.8
2022-07-28T06:12:59.713Z,21.5
2022-07-28T06:14:00.314Z,22.2
2022-07-28T06:15:00.917Z,22.6
2022-07-28T06:16:01.559Z,22.7
2022-07-28T06:17:02.221Z,23.2
2022-07-28T06:18:02.782Z,23.1
2022-07-28T06:19:03.383Z,23.5
2022-07-28T06:20:03.987Z,24.2
2022-07-28T06:21:04.585Z,23.3
2022-07-28T06:22:05.187Z,22.1
2022-07-28T06:23:05.811Z,22.2
2022-07-28T06:24:06.427Z,22.4
2022-07-28T06:25:07.028Z,22.2
2022-07-28T06:26:07.634Z,22.0
2022-07-28T06:27:08.230Z,22.0
2022-07-28T06:28:08.830Z,22.5
2022-07-28T06:29:09.431Z,23.3
2022-07-28T06:30:10.054Z,23.4
2022-07-28T06:31:10.704Z,24.2
2022-07-28T06:32:11.355Z,23.4
2022-07-28T06:33:16.859Z,23.4
2022-07-28T06:34:13.823Z,24.3
2022-07-28T06:35:14.504Z,24.3
2022-07-28T06:36:15.121Z,24.3
2022-07-28T06:37:15.709Z,24.6
2022-07-28T06:38:16.313Z,25.3
2022-07-28T06:39:16.934Z,24.9
2022-07-28T06:40:17.537Z,24.4
2022-07-28T06:41:18.142Z,24.1
2022-07-28T06:42:18.742Z,24.5
2022-07-28T06:43:19.342Z,24.3
2022-07-28T06:44:20.322Z,23.9
2022-07-28T06:45:21.839Z,22.9
2022-07-28T06:46:22.516Z,23.3
2022-07-28T06:47:23.101Z,22.5
2022-07-28T06:48:27.282Z,22.8
2022-07-28T06:49:25.337Z,22.2
2022-07-28T06:50:27.112Z,22.1
2022-07-28T06:51:27.495Z,22.3
2022-07-28T06:52:28.099Z,22.1
2022-07-28T06:53:33.608Z,22.5
2022-07-28T06:54:30.298Z,22.6
2022-07-28T06:55:35.342Z,23.2
2022-07-28T06:56:32.499Z,23.6
2022-07-28T06:57:33.660Z,23.7
2022-07-28T06:58:34.453Z,22.8
2022-07-28T06:59:35.027Z,23.1
2022-07-28T07:00:35.721Z,23.3
2022-07-28T07:01:36.386Z,23.2
2022-07-28T07:02:36.936Z,23.5
2022-07-28T07:03:37.539Z,23.7
2022-07-28T07:04:38.200Z,23.9
2022-07-28T07:05:38.793Z,23.7
2022-07-28T07:06:39.414Z,22.7
2022-07-28T07:07:43.393Z,22.4
2022-07-28T07:08:41.612Z,21.6
2022-07-28T07:09:42.214Z,22.3
2022-07-28T07:10:42.815Z,23.0
2022-07-28T07:11:43.420Z,22.9
2022-07-28T07:12:44.020Z,21.9
2022-07-28T07:13:44.628Z,21.6
2022-07-28T07:14:45.222Z,21.6
2022-07-28T07:15:45.867Z,21.4
2022-07-28T07:16:46.501Z,21.0
2022-07-28T07:17:47.071Z,20.4
2022-07-28T07:18:47.692Z,20.1
2022-07-28T07:19:48.296Z,20.5
2022-07-28T07:20:48.898Z,20.9
2022-07-28T07:21:49.501Z,20.2
2022-07-28T07:22:50.103Z,19.8
2022-07-28T07:23:50.728Z,20.0
2022-07-28T07:24:54.991Z,20.2
2022-07-28T07:25:52.952Z,19.9
2022-07-28T07:26:53.548Z,20.0
2022-07-28T07:27:54.150Z,20.2
2022-07-28T07:28:54.750Z,20.2
2022-07-28T07:29:55.353Z,20.1
2022-07-28T07:30:56.025Z,20.0
2022-07-28T07:31:56.655Z,19.3
2022-07-28T07:32:57.225Z,19.3
2022-07-28T07:33:57.828Z,19.3
2022-07-28T07:34:58.431Z,19.3
2022-07-28T07:35:59.037Z,19.4
2022-07-28T07:36:59.634Z,19.1
2022-07-28T07:38:00.237Z,19.2
2022-07-28T07:39:00.838Z,19.2
2022-07-28T07:40:01.464Z,18.8
2022-07-28T07:41:02.042Z,19.0
2022-07-28T07:42:02.657Z,19.1
2022-07-28T07:43:03.259Z,19.6
2022-07-28T07:44:03.856Z,19.5
2022-07-28T07:45:04.454Z,19.4
2022-07-28T07:46:05.078Z,19.3
2022-07-28T07:47:05.700Z,19.5
2022-07-28T07:48:06.272Z,19.7
2022-07-28T07:49:06.905Z,20.1
2022-07-28T07:50:08.152Z,19.3
2022-07-28T07:51:13.372Z,18.9
2022-07-28T07:52:09.368Z,18.8
2022-07-28T07:53:09.970Z,18.9
2022-07-28T07:54:10.615Z,18.9
2022-07-28T07:55:11.195Z,18.8
2022-07-28T07:56:11.798Z,18.8
2022-07-28T07:57:12.399Z,19.1
2022-07-28T07:58:13.002Z,19.3
2022-07-28T07:59:13.626Z,19.4
2022-07-28T08:00:29.032Z,19.3
2022-07-28T08:01:15.894Z,19.6
2022-07-28T08:02:16.501Z,19.9
2022-07-28T08:03:17.052Z,19.4
2022-07-28T08:04:19.171Z,19.3
2022-07-28T08:05:20.243Z,19.0
2022-07-28T08:06:26.578Z,18.9
2022-07-28T08:07:23.432Z,19.3
2022-07-28T08:08:24.220Z,19.4
2022-07-28T08:09:24.849Z,19.2
2022-07-28T08:10:25.434Z,19.6
2022-07-28T08:11:26.055Z,19.6
2022-07-28T08:12:26.660Z,20.0
2022-07-28T08:13:27.281Z,20.2
2022-07-28T08:14:27.912Z,19.8
2022-07-28T08:15:28.485Z,19.9
2022-07-28T08:16:29.148Z,19.6
2022-07-28T08:17:29.708Z,19.6
2022-07-28T08:18:30.312Z,19.9
2022-07-28T08:19:30.916Z,20.2
2022-07-28T08:20:31.519Z,20.1
2022-07-28T08:21:32.124Z,20.3
2022-07-28T08:22:32.725Z,20.1
2022-07-28T08:23:33.328Z,20.4
2022-07-28T08:24:34.512Z,20.5
2022-07-28T08:25:35.166Z,20.7
2022-07-28T08:26:35.768Z,20.7
2022-07-28T08:27:36.374Z,20.8
2022-07-28T08:28:36.976Z,20.5
2022-07-28T08:29:37.599Z,20.7
2022-07-28T08:30:38.202Z,21.0
2022-07-28T08:31:38.857Z,21.1
2022-07-28T08:32:39.453Z,21.3
2022-07-28T08:33:53.288Z,21.3
2022-07-28T08:34:41.675Z,21.1
2022-07-28T08:35:42.277Z,21.1
2022-07-28T08:36:42.882Z,21.4
2022-07-28T08:37:43.483Z,21.6
2022-07-28T08:38:44.087Z,21.5
2022-07-28T08:39:44.710Z,21.2
2022-07-28T08:40:45.312Z,21.0
2022-07-28T08:41:45.934Z,21.0
2022-07-28T08:42:46.556Z,21.3
2022-07-28T08:43:47.185Z,21.4
2022-07-28T08:44:47.786Z,20.6
2022-07-28T08:45:48.387Z,20.2
2022-07-28T08:46:49.092Z,20.2
2022-07-28T08:48:07.737Z,19.8
2022-07-28T08:48:51.417Z,20.0
2022-07-28T08:49:51.990Z,20.1
2022-07-28T08:50:52.593Z,20.4
2022-07-28T08:51:53.193Z,21.1
2022-07-28T08:52:53.799Z,21.5
2022-07-28T08:53:54.431Z,21.6
2022-07-28T08:54:55.020Z,21.5
2022-07-28T08:55:55.622Z,21.1
2022-07-28T08:56:56.226Z,20.8
2022-07-28T08:57:56.831Z,20.8
2022-07-28T08:58:58.428Z,21.0
2022-07-28T08:59:59.053Z,21.0
2022-07-28T09:00:59.656Z,21.4
2022-07-28T09:02:00.312Z,21.5
2022-07-28T09:03:00.926Z,21.7
2022-07-28T09:04:01.485Z,21.8
2022-07-28T09:05:02.101Z,21.8
2022-07-28T09:06:02.709Z,22.2
2022-07-28T09:07:03.317Z,22.5
2022-07-28T09:08:03.911Z,22.6
2022-07-28T09:09:04.512Z,22.1
2022-07-28T09:10:05.115Z,22.0
2022-07-28T09:11:05.718Z,21.8
2022-07-28T09:12:06.321Z,22.1
2022-07-28T09:13:06.926Z,22.6
2022-07-28T09:14:07.547Z,22.7
2022-07-28T09:15:08.142Z,23.0
2022-07-28T09:16:08.803Z,22.8
2022-07-28T09:17:09.368Z,22.8
2022-07-28T09:18:09.970Z,21.4
2022-07-28T09:19:10.572Z,21.3
2022-07-28T09:20:11.564Z,21.0
2022-07-28T09:21:12.259Z,20.7
2022-07-28T09:22:12.862Z,20.8
2022-07-28T09:23:42.216Z,21.4
2022-07-28T09:24:15.402Z,21.5
2022-07-28T09:25:16.191Z,20.3
2022-07-28T09:26:16.793Z,20.3
2022-07-28T09:27:17.395Z,20.1
2022-07-28T09:28:17.997Z,20.4
2022-07-28T09:29:18.617Z,20.4
2022-07-28T09:30:19.260Z,20.7
2022-07-28T09:31:19.862Z,21.0
2022-07-28T09:32:20.470Z,21.3
2022-07-28T09:33:42.529Z,21.6
2022-07-28T09:34:22.689Z,21.8
2022-07-28T09:35:23.293Z,21.7
2022-07-28T09:36:23.899Z,22.0
2022-07-28T09:37:27.445Z,22.2
2022-07-28T09:38:26.126Z,22.1
2022-07-28T09:39:26.742Z,22.1
2022-07-28T09:40:27.365Z,22.0
2022-07-28T09:41:27.970Z,22.5
2022-07-28T09:42:28.570Z,22.4
2022-07-28T09:43:29.176Z,22.8
2022-07-28T09:44:29.802Z,22.6
2022-07-28T09:45:30.452Z,22.4
2022-07-28T09:46:31.145Z,22.7
2022-07-28T09:47:31.810Z,22.9
2022-07-28T09:48:32.427Z,22.0
2022-07-28T09:49:33.176Z,21.9
2022-07-28T09:50:34.717Z,22.4
2022-07-28T09:51:35.320Z,22.7
2022-07-28T09:52:35.943Z,22.7
2022-07-28T09:53:36.566Z,22.6
2022-07-28T09:54:40.817Z,22.6
2022-07-28T09:55:37.794Z,21.8
2022-07-28T09:56:38.420Z,21.9
2022-07-28T09:57:39.023Z,21.9
2022-07-28T09:58:40.622Z,21.9
2022-07-28T09:59:41.237Z,22.0
2022-07-28T10:00:42.832Z,21.9
2022-07-28T10:01:43.469Z,21.5
2022-07-28T10:02:45.352Z,21.5
2022-07-28T10:03:45.647Z,21.6
2022-07-28T10:04:46.252Z,21.8
2022-07-28T10:05:49.514Z,21.4
2022-07-28T10:06:48.450Z,21.5
2022-07-28T10:07:49.097Z,22.1
2022-07-28T10:08:49.698Z,22.5
2022-07-28T10:09:50.303Z,22.5
2022-07-28T10:10:51.013Z,22.8
2022-07-28T10:11:51.619Z,22.9
2022-07-28T10:12:52.222Z,22.1
2022-07-28T10:13:52.827Z,21.9
2022-07-28T10:14:53.429Z,21.7
2022-07-28T10:15:54.053Z,22.1
2022-07-28T10:16:54.636Z,22.5
2022-07-28T10:17:55.241Z,22.8
2022-07-28T10:18:55.844Z,22.5
2022-07-28T10:19:56.450Z,22.3
2022-07-28T10:20:57.054Z,22.5
2022-07-28T10:21:57.677Z,22.3
2022-07-28T10:22:58.281Z,22.0
2022-07-28T10:23:58.886Z,22.1
2022-07-28T10:24:59.489Z,22.3
2022-07-28T10:26:00.094Z,22.6
2022-07-28T10:27:00.698Z,22.6
2022-07-28T10:28:01.302Z,23.0
2022-07-28T10:29:01.905Z,23.2
2022-07-28T10:30:02.514Z,23.3
2022-07-28T10:31:03.166Z,22.6
2022-07-28T10:32:03.758Z,22.1
2022-07-28T10:33:04.362Z,21.9
2022-07-28T10:34:04.966Z,22.1
2022-07-28T10:35:05.572Z,21.5
2022-07-28T10:36:06.174Z,21.6
2022-07-28T10:37:06.775Z,21.7
2022-07-28T10:38:07.383Z,21.5
2022-07-28T10:39:07.986Z,21.4
2022-07-28T10:40:10.595Z,21.2
2022-07-28T10:41:09.207Z,21.2
2022-07-28T10:42:09.825Z,21.4
2022-07-28T10:43:10.416Z,21.8
2022-07-28T10:44:11.105Z,22.0
2022-07-28T10:45:11.697Z,22.2
2022-07-28T10:46:16.379Z,22.7
2022-07-28T10:47:18.502Z,22.8
2022-07-28T10:48:15.497Z,22.0
2022-07-28T10:49:16.680Z,21.9
2022-07-28T10:50:18.212Z,21.9
2022-07-28T10:51:18.817Z,21.9
2022-07-28T10:52:45.950Z,22.1
2022-07-28T10:53:22.015Z,22.1
2022-07-28T10:54:24.922Z,21.9
2022-07-28T10:55:25.191Z,21.7
2022-07-28T10:56:26.788Z,21.4
2022-07-28T10:57:28.016Z,21.5
2022-07-28T10:58:29.615Z,21.5
2022-07-28T10:59:30.217Z,21.4
2022-07-28T11:00:46.693Z,21.6
2022-07-28T11:01:47.721Z,21.6
2022-07-28T11:02:33.151Z,21.6
2022-07-28T11:03:34.022Z,21.9
2022-07-28T11:04:34.647Z,21.6
2022-07-28T11:05:35.277Z,21.6
2022-07-28T11:06:35.881Z,21.7
2022-07-28T11:07:36.502Z,22.0
2022-07-28T11:08:37.106Z,22.3
2022-07-28T11:09:37.712Z,22.1
2022-07-28T11:10:38.313Z,22.0
2022-07-28T11:11:38.919Z,21.4
2022-07-28T11:12:39.522Z,21.4
2022-07-28T11:13:41.278Z,22.0
2022-07-28T11:14:41.728Z,22.5
2022-07-28T11:15:43.326Z,22.9
2022-07-28T11:16:43.981Z,23.1
2022-07-28T11:17:44.549Z,23.0
2022-07-28T11:18:45.579Z,22.7
2022-07-28T11:20:47.779Z,22.1
2022-07-28T11:21:52.757Z,21.9
2022-07-28T11:22:49.999Z,21.9
2022-07-28T11:23:50.589Z,22.1
2022-07-28T11:24:51.193Z,22.3
2022-07-28T11:25:51.800Z,22.5
2022-07-28T11:26:52.430Z,22.6
2022-07-28T11:27:53.032Z,22.8
2022-07-28T11:28:53.635Z,22.8
2022-07-28T11:29:54.552Z,22.9
2022-07-28T11:30:55.271Z,22.9
2022-07-28T11:31:55.915Z,22.9
2022-07-28T11:32:56.519Z,22.8
2022-07-28T11:33:57.148Z,22.9
2022-07-28T11:34:57.745Z,22.6
2022-07-28T11:35:58.349Z,22.5
2022-07-28T11:36:58.979Z,22.6
2022-07-28T11:37:59.581Z,22.2
2022-07-28T11:39:00.183Z,22.0
2022-07-28T11:40:00.788Z,22.0
2022-07-28T11:41:01.392Z,22.0
2022-07-28T11:42:01.995Z,21.9
2022-07-28T11:43:03.451Z,21.9
2022-07-28T11:44:04.054Z,21.9
2022-07-28T11:45:05.650Z,21.7
2022-07-28T11:46:11.163Z,21.8
2022-07-28T11:47:08.846Z,21.7
2022-07-28T11:48:09.469Z,21.8
2022-07-28T11:49:14.748Z,22.1
2022-07-28T11:50:10.697Z,22.4
2022-07-28T11:51:11.323Z,22.3
2022-07-28T11:52:11.948Z,22.2
2022-07-28T11:53:12.566Z,22.5
2022-07-28T11:54:13.406Z,22.4
2022-07-28T11:55:14.118Z,22.6
2022-07-28T11:56:14.722Z,22.5
2022-07-28T11:57:15.324Z,22.5
2022-07-28T11:58:15.934Z,22.4
2022-07-28T11:59:16.537Z,22.3
2022-07-28T12:00:17.143Z,21.9
2022-07-28T12:01:18.949Z,22.3
2022-07-28T12:02:19.434Z,22.6
2022-07-28T12:03:19.982Z,22.9
2022-07-28T12:04:21.583Z,22.9
2022-07-28T12:05:22.179Z,22.9
2022-07-28T12:06:27.190Z,22.4
2022-07-28T12:07:24.396Z,22.3
2022-07-28T12:08:25.320Z,22.4
2022-07-28T12:09:30.952Z,22.3
2022-07-28T12:10:54.635Z,22.3
2022-07-28T12:11:29.119Z,22.3
2022-07-28T12:12:29.724Z,22.3
2022-07-28T12:13:30.333Z,22.5
2022-07-28T12:14:32.308Z,22.7
2022-07-28T12:15:32.531Z,22.8
2022-07-28T12:16:33.306Z,23.0
2022-07-28T12:17:33.899Z,22.8
2022-07-28T12:18:34.524Z,22.4
2022-07-28T12:19:35.443Z,22.8
2022-07-28T12:20:36.159Z,23.0
2022-07-28T12:21:36.779Z,23.2
2022-07-28T12:22:37.387Z,23.3
2022-07-28T12:23:44.186Z,23.4
2022-07-28T12:24:44.666Z,22.7
2022-07-28T12:25:41.185Z,22.7
2022-07-28T12:26:41.794Z,23.0
2022-07-28T12:27:45.906Z,23.3
2022-07-28T12:28:44.453Z,23.2
2022-07-28T12:29:47.900Z,22.6
2022-07-28T12:30:46.896Z,22.2
2022-07-28T12:31:47.559Z,22.5
2022-07-28T12:32:48.164Z,22.5
2022-07-28T12:33:48.788Z,22.5
2022-07-28T12:34:49.393Z,22.2
2022-07-28T12:35:49.997Z,22.3
2022-07-28T12:36:50.601Z,22.6
2022-07-28T12:37:51.228Z,22.5
2022-07-28T12:38:51.832Z,22.3
2022-07-28T12:39:52.439Z,22.7
2022-07-28T12:40:53.061Z,23.1
2022-07-28T12:41:53.663Z,23.4
2022-07-28T12:42:54.266Z,23.3
2022-07-28T12:43:54.870Z,23.3
2022-07-28T12:44:55.477Z,23.2
2022-07-28T12:45:56.128Z,23.3
2022-07-28T12:46:56.701Z,23.4
2022-07-28T12:47:57.304Z,23.3
2022-07-28T12:48:58.060Z,22.7
2022-07-28T12:50:02.406Z,22.6
2022-07-28T12:50:59.281Z,22.9
2022-07-28T12:51:59.886Z,23.0
2022-07-28T12:53:00.488Z,23.1
2022-07-28T12:54:01.093Z,22.7
2022-07-28T12:55:01.701Z,22.7
2022-07-28T12:56:02.309Z,22.6
2022-07-28T12:57:02.908Z,22.8
2022-07-28T12:58:03.511Z,22.9
2022-07-28T12:59:04.114Z,22.5
2022-07-28T13:00:04.719Z,22.7
2022-07-28T13:01:05.397Z,22.7
2022-07-28T13:02:06.004Z,23.0
2022-07-28T13:03:06.572Z,23.3
2022-07-28T13:04:07.175Z,23.3
2022-07-28T13:05:07.778Z,23.2
2022-07-28T13:06:08.399Z,23.0
2022-07-28T13:07:09.002Z,22.8
2022-07-28T13:08:09.604Z,22.7
2022-07-28T13:09:15.154Z,22.9
2022-07-28T13:10:12.916Z,23.1
2022-07-28T13:11:41.873Z,23.3
2022-07-28T13:12:15.060Z,23.6
2022-07-28T13:13:15.666Z,23.8
2022-07-28T13:14:16.583Z,23.4
2022-07-28T13:15:17.250Z,23.1
2022-07-28T13:16:17.933Z,23.0
2022-07-28T13:17:18.502Z,23.3
2022-07-28T13:18:19.102Z,23.3
2022-07-28T13:19:19.710Z,23.4
2022-07-28T13:20:20.318Z,23.2
2022-07-28T13:21:20.940Z,23.2
2022-07-28T13:22:21.545Z,23.5
2022-07-28T13:23:22.147Z,23.7
2022-07-28T13:24:22.773Z,23.9
2022-07-28T13:25:23.379Z,23.7
2022-07-28T13:26:23.980Z,23.7
2022-07-28T13:27:24.589Z,23.4
2022-07-28T13:28:25.194Z,23.2
2022-07-28T13:29:25.804Z,23.0
2022-07-28T13:30:26.401Z,23.1
2022-07-28T13:31:27.059Z,23.3
2022-07-28T13:32:27.737Z,23.6